sensor_id;sensor_type;location;lat;lon;timestamp;temperature;humidity
52979;DHT22;63430;53.186;6.598;2023-02-15T00:00:19;1.50;99.90
52979;DHT22;63430;53.186;6.598;2023-02-15T00:02:22;0.80;99.90
52979;DHT22;63430;53.186;6.598;2023-02-15T00:04:26;0.80;99.90
52979;DHT22;63430;53.186;6.598;2023-02-15T00:06:48;0.80;99.90
52979;DHT22;63430;53.186;6.598;2023-02-15T00:08:53;0.70;99.90
52979;DHT22;63430;53.186;6.598;2023-02-15T00:11:06;0.80;99.90
52979;DHT22;63430;53.186;6.598;2023-02-15T00:13:09;0.70;99.90
52979;DHT22;63430;53.186;6.598;2023-02-15T00:15:11;0.70;99.90
52979;DHT22;63430;53.186;6.598;2023-02-15T00:17:15;0.70;99.90
52979;DHT22;63430;53.186;6.598;2023-02-15T00:19:21;0.70;99.90
52979;DHT22;63430;53.186;6.598;2023-02-15T00:21:23;0.70;99.90
52979;DHT22;63430;53.186;6.598;2023-02-15T00:23:26;0.60;99.90
52979;DHT22;63430;53.186;6.598;2023-02-15T00:25:29;0.60;99.90
52979;DHT22;63430;53.186;6.598;2023-02-15T00:27:34;0.60;99.90
52979;DHT22;63430;53.186;6.598;2023-02-15T00:29:37;0.60;99.90
52979;DHT22;63430;53.186;6.598;2023-02-15T00:31:40;0.60;99.90
52979;DHT22;63430;53.186;6.598;2023-02-15T00:33:42;0.60;99.90
52979;DHT22;63430;53.186;6.598;2023-02-15T00:35:45;0.60;99.90
52979;DHT22;63430;53.186;6.598;2023-02-15T00:37:47;0.50;99.90
52979;DHT22;63430;53.186;6.598;2023-02-15T00:39:51;1.10;99.90
52979;DHT22;63430;53.186;6.598;2023-02-15T00:41:53;0.60;99.90
52979;DHT22;63430;53.186;6.598;2023-02-15T00:43:59;0.60;99.90
52979;DHT22;63430;53.186;6.598;2023-02-15T00:46:05;0.60;99.90
52979;DHT22;63430;53.186;6.598;2023-02-15T00:48:07;0.50;99.90
52979;DHT22;63430;53.186;6.598;2023-02-15T00:50:17;0.50;99.90
52979;DHT22;63430;53.186;6.598;2023-02-15T00:52:21;0.50;99.90
52979;DHT22;63430;53.186;6.598;2023-02-15T00:54:23;0.50;99.90
52979;DHT22;63430;53.186;6.598;2023-02-15T00:56:26;0.20;99.90
52979;DHT22;63430;53.186;6.598;2023-02-15T00:58:30;0.50;99.90
52979;DHT22;63430;53.186;6.598;2023-02-15T01:00:36;0.50;99.90
52979;DHT22;63430;53.186;6.598;2023-02-15T01:02:39;0.40;99.90
52979;DHT22;63430;53.186;6.598;2023-02-15T01:04:41;0.40;99.90
52979;DHT22;63430;53.186;6.598;2023-02-15T01:06:44;0.50;99.90
52979;DHT22;63430;53.186;6.598;2023-02-15T01:08:47;0.40;99.90
52979;DHT22;63430;53.186;6.598;2023-02-15T01:10:51;1.20;99.90
52979;DHT22;63430;53.186;6.598;2023-02-15T01:12:55;0.30;99.90
52979;DHT22;63430;53.186;6.598;2023-02-15T01:15:00;0.30;99.90
52979;DHT22;63430;53.186;6.598;2023-02-15T01:17:05;0.30;99.90
52979;DHT22;63430;53.186;6.598;2023-02-15T01:19:10;0.40;99.90
52979;DHT22;63430;53.186;6.598;2023-02-15T01:21:15;0.30;99.90
52979;DHT22;63430;53.186;6.598;2023-02-15T01:23:19;0.30;99.90
52979;DHT22;63430;53.186;6.598;2023-02-15T01:25:23;0.30;99.90
52979;DHT22;63430;53.186;6.598;2023-02-15T01:27:25;0.30;99.90
52979;DHT22;63430;53.186;6.598;2023-02-15T01:29:28;0.20;99.90
52979;DHT22;63430;53.186;6.598;2023-02-15T01:31:30;0.20;99.90
52979;DHT22;63430;53.186;6.598;2023-02-15T01:33:36;1.50;99.90
52979;DHT22;63430;53.186;6.598;2023-02-15T01:35:39;0.20;99.90
52979;DHT22;63430;53.186;6.598;2023-02-15T01:37:41;0.20;99.90
52979;DHT22;63430;53.186;6.598;2023-02-15T01:39:44;0.20;99.90
52979;DHT22;63430;53.186;6.598;2023-02-15T01:41:46;0.20;99.90
52979;DHT22;63430;53.186;6.598;2023-02-15T01:43:52;1.30;99.90
52979;DHT22;63430;53.186;6.598;2023-02-15T01:45:55;0.10;99.90
52979;DHT22;63430;53.186;6.598;2023-02-15T01:48:01;0.10;99.90
52979;DHT22;63430;53.186;6.598;2023-02-15T01:50:14;0.10;99.90
52979;DHT22;63430;53.186;6.598;2023-02-15T01:52:18;0.10;99.90
52979;DHT22;63430;53.186;6.598;2023-02-15T01:54:22;0.10;99.90
52979;DHT22;63430;53.186;6.598;2023-02-15T01:56:29;0.10;99.90
52979;DHT22;63430;53.186;6.598;2023-02-15T01:58:34;0.60;99.90
52979;DHT22;63430;53.186;6.598;2023-02-15T02:00:37;0.70;99.90
52979;DHT22;63430;53.186;6.598;2023-02-15T02:02:40;0.10;99.90
52979;DHT22;63430;53.186;6.598;2023-02-15T02:04:47;0.00;99.90
52979;DHT22;63430;53.186;6.598;2023-02-15T02:06:57;0.00;99.90
52979;DHT22;63430;53.186;6.598;2023-02-15T02:09:02;0.10;99.90
52979;DHT22;63430;53.186;6.598;2023-02-15T02:11:10;0.10;99.90
52979;DHT22;63430;53.186;6.598;2023-02-15T02:13:13;0.00;99.90
52979;DHT22;63430;53.186;6.598;2023-02-15T02:15:16;0.10;99.90
52979;DHT22;63430;53.186;6.598;2023-02-15T02:17:24;0.10;99.90
52979;DHT22;63430;53.186;6.598;2023-02-15T02:19:52;0.00;99.90
52979;DHT22;63430;53.186;6.598;2023-02-15T02:25:01;0.00;99.90
52979;DHT22;63430;53.186;6.598;2023-02-15T02:27:32;0.00;99.90
52979;DHT22;63430;53.186;6.598;2023-02-15T02:35:07;-0.10;99.90
52979;DHT22;63430;53.186;6.598;2023-02-15T02:37:19;0.20;99.90
52979;DHT22;63430;53.186;6.598;2023-02-15T02:39:27;-0.10;99.90
52979;DHT22;63430;53.186;6.598;2023-02-15T02:41:41;-0.10;99.90
52979;DHT22;63430;53.186;6.598;2023-02-15T02:43:50;-0.10;99.90
52979;DHT22;63430;53.186;6.598;2023-02-15T02:45:58;-1.30;99.90
52979;DHT22;63430;53.186;6.598;2023-02-15T02:48:07;-0.10;99.90
52979;DHT22;63430;53.186;6.598;2023-02-15T02:50:17;-0.10;99.90
52979;DHT22;63430;53.186;6.598;2023-02-15T02:52:38;-0.10;99.90
52979;DHT22;63430;53.186;6.598;2023-02-15T02:54:41;-0.20;99.90
52979;DHT22;63430;53.186;6.598;2023-02-15T02:56:47;0.00;99.90
52979;DHT22;63430;53.186;6.598;2023-02-15T02:58:55;-0.20;99.90
52979;DHT22;63430;53.186;6.598;2023-02-15T03:01:05;-0.20;99.90
52979;DHT22;63430;53.186;6.598;2023-02-15T03:03:12;-0.20;99.90
52979;DHT22;63430;53.186;6.598;2023-02-15T03:05:24;-0.30;99.90
52979;DHT22;63430;53.186;6.598;2023-02-15T03:07:29;-0.30;99.90
52979;DHT22;63430;53.186;6.598;2023-02-15T03:09:38;-0.20;99.90
52979;DHT22;63430;53.186;6.598;2023-02-15T03:11:47;-0.30;99.90
52979;DHT22;63430;53.186;6.598;2023-02-15T03:13:50;-0.30;99.90
52979;DHT22;63430;53.186;6.598;2023-02-15T03:15:55;-0.30;99.90
52979;DHT22;63430;53.186;6.598;2023-02-15T03:18:17;-0.30;99.90
52979;DHT22;63430;53.186;6.598;2023-02-15T03:20:25;-0.30;99.90
52979;DHT22;63430;53.186;6.598;2023-02-15T03:22:33;-0.30;99.90
52979;DHT22;63430;53.186;6.598;2023-02-15T03:24:41;-0.30;99.90
52979;DHT22;63430;53.186;6.598;2023-02-15T03:26:47;-0.30;99.90
52979;DHT22;63430;53.186;6.598;2023-02-15T03:28:55;-0.40;99.90
52979;DHT22;63430;53.186;6.598;2023-02-15T03:31:01;-0.30;99.90
52979;DHT22;63430;53.186;6.598;2023-02-15T03:33:06;-0.40;99.90
52979;DHT22;63430;53.186;6.598;2023-02-15T03:35:09;-0.40;99.90
52979;DHT22;63430;53.186;6.598;2023-02-15T03:37:20;-0.40;99.90
52979;DHT22;63430;53.186;6.598;2023-02-15T03:39:30;-0.40;99.90
52979;DHT22;63430;53.186;6.598;2023-02-15T03:41:39;-0.40;99.90
52979;DHT22;63430;53.186;6.598;2023-02-15T03:43:47;-0.50;99.90
52979;DHT22;63430;53.186;6.598;2023-02-15T03:45:55;-0.50;99.90
52979;DHT22;63430;53.186;6.598;2023-02-15T03:48:00;-0.50;99.90
52979;DHT22;63430;53.186;6.598;2023-02-15T03:50:07;-0.40;99.90
52979;DHT22;63430;53.186;6.598;2023-02-15T03:52:34;0.00;99.90
52979;DHT22;63430;53.186;6.598;2023-02-15T03:54:37;-0.40;99.90
52979;DHT22;63430;53.186;6.598;2023-02-15T03:56:49;-0.40;99.90
52979;DHT22;63430;53.186;6.598;2023-02-15T03:59:15;-0.50;99.90
52979;DHT22;63430;53.186;6.598;2023-02-15T04:01:39;-0.50;99.90
52979;DHT22;63430;53.186;6.598;2023-02-15T04:04:05;-0.50;99.90
52979;DHT22;63430;53.186;6.598;2023-02-15T04:06:10;-0.50;99.90
52979;DHT22;63430;53.186;6.598;2023-02-15T04:08:15;-0.50;99.90
52979;DHT22;63430;53.186;6.598;2023-02-15T04:10:17;-0.60;99.90
52979;DHT22;63430;53.186;6.598;2023-02-15T04:12:39;-0.60;99.90
52979;DHT22;63430;53.186;6.598;2023-02-15T04:14:42;-0.70;99.90
52979;DHT22;63430;53.186;6.598;2023-02-15T04:17:05;-0.70;99.90
52979;DHT22;63430;53.186;6.598;2023-02-15T04:19:08;-0.60;99.90
52979;DHT22;63430;53.186;6.598;2023-02-15T04:21:30;-0.70;99.90
52979;DHT22;63430;53.186;6.598;2023-02-15T04:23:54;-0.60;99.90
52979;DHT22;63430;53.186;6.598;2023-02-15T04:26:15;-0.60;99.90
52979;DHT22;63430;53.186;6.598;2023-02-15T04:28:20;-0.70;99.90
52979;DHT22;63430;53.186;6.598;2023-02-15T04:30:24;-0.70;99.90
52979;DHT22;63430;53.186;6.598;2023-02-15T04:32:30;-0.70;99.90
52979;DHT22;63430;53.186;6.598;2023-02-15T04:34:32;-0.60;99.90
52979;DHT22;63430;53.186;6.598;2023-02-15T04:36:35;-0.60;99.90
52979;DHT22;63430;53.186;6.598;2023-02-15T04:38:38;-0.60;99.90
52979;DHT22;63430;53.186;6.598;2023-02-15T04:40:43;-0.70;99.90
52979;DHT22;63430;53.186;6.598;2023-02-15T04:42:47;-0.70;99.90
52979;DHT22;63430;53.186;6.598;2023-02-15T04:44:50;-0.70;99.90
52979;DHT22;63430;53.186;6.598;2023-02-15T04:46:52;-0.70;99.90
52979;DHT22;63430;53.186;6.598;2023-02-15T04:48:56;-1.10;99.90
52979;DHT22;63430;53.186;6.598;2023-02-15T04:51:05;-0.60;99.90
52979;DHT22;63430;53.186;6.598;2023-02-15T04:53:08;-0.60;99.90
52979;DHT22;63430;53.186;6.598;2023-02-15T04:55:10;-1.00;99.90
52979;DHT22;63430;53.186;6.598;2023-02-15T04:57:16;-0.60;99.90
52979;DHT22;63430;53.186;6.598;2023-02-15T04:59:19;-0.60;99.90
52979;DHT22;63430;53.186;6.598;2023-02-15T05:01:21;-0.70;99.90
52979;DHT22;63430;53.186;6.598;2023-02-15T05:03:24;-0.80;99.90
52979;DHT22;63430;53.186;6.598;2023-02-15T05:05:27;-0.80;99.90
52979;DHT22;63430;53.186;6.598;2023-02-15T05:07:29;-0.80;99.90
52979;DHT22;63430;53.186;6.598;2023-02-15T05:09:31;-0.80;99.90
52979;DHT22;63430;53.186;6.598;2023-02-15T05:11:34;-0.80;99.90
52979;DHT22;63430;53.186;6.598;2023-02-15T05:13:40;-0.80;99.90
52979;DHT22;63430;53.186;6.598;2023-02-15T05:15:47;-0.80;99.90
52979;DHT22;63430;53.186;6.598;2023-02-15T05:17:50;-0.80;99.90
52979;DHT22;63430;53.186;6.598;2023-02-15T05:19:52;-0.80;99.90
52979;DHT22;63430;53.186;6.598;2023-02-15T05:21:56;-0.80;99.90
52979;DHT22;63430;53.186;6.598;2023-02-15T05:23:58;-0.80;99.90
52979;DHT22;63430;53.186;6.598;2023-02-15T05:26:01;-0.80;99.90
52979;DHT22;63430;53.186;6.598;2023-02-15T05:28:25;-0.80;99.90
52979;DHT22;63430;53.186;6.598;2023-02-15T05:30:30;-0.80;99.90
52979;DHT22;63430;53.186;6.598;2023-02-15T05:32:32;-0.80;99.90
52979;DHT22;63430;53.186;6.598;2023-02-15T05:34:35;-0.80;99.90
52979;DHT22;63430;53.186;6.598;2023-02-15T05:36:38;-0.80;99.90
52979;DHT22;63430;53.186;6.598;2023-02-15T05:38:40;-0.60;99.90
52979;DHT22;63430;53.186;6.598;2023-02-15T05:40:43;-0.80;99.90
52979;DHT22;63430;53.186;6.598;2023-02-15T05:42:45;-0.80;99.90
52979;DHT22;63430;53.186;6.598;2023-02-15T05:44:48;-0.80;99.90
52979;DHT22;63430;53.186;6.598;2023-02-15T05:46:53;-0.90;99.90
52979;DHT22;63430;53.186;6.598;2023-02-15T05:48:57;-0.80;99.90
52979;DHT22;63430;53.186;6.598;2023-02-15T05:51:01;-0.80;99.90
52979;DHT22;63430;53.186;6.598;2023-02-15T05:53:04;-0.90;99.90
52979;DHT22;63430;53.186;6.598;2023-02-15T05:55:07;-0.80;99.90
52979;DHT22;63430;53.186;6.598;2023-02-15T05:57:11;-0.80;99.90
52979;DHT22;63430;53.186;6.598;2023-02-15T05:59:13;-0.80;99.90
52979;DHT22;63430;53.186;6.598;2023-02-15T06:01:18;-0.80;99.90
52979;DHT22;63430;53.186;6.598;2023-02-15T06:03:24;-0.80;99.90
52979;DHT22;63430;53.186;6.598;2023-02-15T06:05:28;-0.80;99.90
52979;DHT22;63430;53.186;6.598;2023-02-15T06:07:31;-0.80;99.90
52979;DHT22;63430;53.186;6.598;2023-02-15T06:09:34;-0.80;99.90
52979;DHT22;63430;53.186;6.598;2023-02-15T06:11:36;0.80;99.90
52979;DHT22;63430;53.186;6.598;2023-02-15T06:13:40;-0.80;99.90
52979;DHT22;63430;53.186;6.598;2023-02-15T06:15:42;-0.80;99.90
52979;DHT22;63430;53.186;6.598;2023-02-15T06:17:45;-0.80;99.90
52979;DHT22;63430;53.186;6.598;2023-02-15T06:19:50;-0.80;99.90
52979;DHT22;63430;53.186;6.598;2023-02-15T06:21:52;0.20;99.90
52979;DHT22;63430;53.186;6.598;2023-02-15T06:23:55;-0.90;99.90
52979;DHT22;63430;53.186;6.598;2023-02-15T06:26:01;-0.90;99.90
52979;DHT22;63430;53.186;6.598;2023-02-15T06:28:06;-0.90;99.90
52979;DHT22;63430;53.186;6.598;2023-02-15T06:30:10;-0.90;99.90
52979;DHT22;63430;53.186;6.598;2023-02-15T06:32:13;-0.90;99.90
52979;DHT22;63430;53.186;6.598;2023-02-15T06:34:16;-1.00;99.90
52979;DHT22;63430;53.186;6.598;2023-02-15T06:36:21;-1.00;99.90
52979;DHT22;63430;53.186;6.598;2023-02-15T06:38:23;-1.00;99.90
52979;DHT22;63430;53.186;6.598;2023-02-15T06:40:26;-1.00;99.90
52979;DHT22;63430;53.186;6.598;2023-02-15T06:42:29;-1.10;99.90
52979;DHT22;63430;53.186;6.598;2023-02-15T06:44:32;-1.00;99.90
52979;DHT22;63430;53.186;6.598;2023-02-15T06:46:34;-1.00;99.90
52979;DHT22;63430;53.186;6.598;2023-02-15T06:48:37;-1.00;99.90
52979;DHT22;63430;53.186;6.598;2023-02-15T06:50:39;-0.90;99.90
52979;DHT22;63430;53.186;6.598;2023-02-15T06:52:44;-0.90;99.90
52979;DHT22;63430;53.186;6.598;2023-02-15T06:54:47;-0.90;99.90
52979;DHT22;63430;53.186;6.598;2023-02-15T06:56:50;-0.90;99.90
52979;DHT22;63430;53.186;6.598;2023-02-15T06:58:52;-0.90;99.90
52979;DHT22;63430;53.186;6.598;2023-02-15T07:01:00;-0.90;99.90
52979;DHT22;63430;53.186;6.598;2023-02-15T07:03:03;-0.90;99.90
52979;DHT22;63430;53.186;6.598;2023-02-15T07:05:05;-0.90;99.90
52979;DHT22;63430;53.186;6.598;2023-02-15T07:07:09;-0.90;99.90
52979;DHT22;63430;53.186;6.598;2023-02-15T07:09:15;-0.80;99.90
52979;DHT22;63430;53.186;6.598;2023-02-15T07:11:19;-0.80;99.90
52979;DHT22;63430;53.186;6.598;2023-02-15T07:13:41;-0.70;99.90
52979;DHT22;63430;53.186;6.598;2023-02-15T07:15:45;-0.70;99.90
52979;DHT22;63430;53.186;6.598;2023-02-15T07:17:48;-0.70;99.90
52979;DHT22;63430;53.186;6.598;2023-02-15T07:19:51;-0.70;99.90
52979;DHT22;63430;53.186;6.598;2023-02-15T07:21:54;-0.60;99.90
52979;DHT22;63430;53.186;6.598;2023-02-15T07:23:57;-0.50;99.90
52979;DHT22;63430;53.186;6.598;2023-02-15T07:26:02;-0.40;99.90
52979;DHT22;63430;53.186;6.598;2023-02-15T07:28:15;-0.40;99.90
52979;DHT22;63430;53.186;6.598;2023-02-15T07:30:18;-0.40;99.90
52979;DHT22;63430;53.186;6.598;2023-02-15T07:32:28;-0.30;99.90
52979;DHT22;63430;53.186;6.598;2023-02-15T07:34:31;-0.20;99.90
52979;DHT22;63430;53.186;6.598;2023-02-15T07:36:34;0.00;99.90
52979;DHT22;63430;53.186;6.598;2023-02-15T07:38:39;0.10;99.90
52979;DHT22;63430;53.186;6.598;2023-02-15T07:40:42;0.20;99.90
52979;DHT22;63430;53.186;6.598;2023-02-15T07:42:47;0.00;99.90
52979;DHT22;63430;53.186;6.598;2023-02-15T07:44:51;0.40;99.90
52979;DHT22;63430;53.186;6.598;2023-02-15T07:46:56;0.40;99.90
52979;DHT22;63430;53.186;6.598;2023-02-15T07:48:59;0.50;99.90
52979;DHT22;63430;53.186;6.598;2023-02-15T07:51:02;0.60;99.90
52979;DHT22;63430;53.186;6.598;2023-02-15T07:53:15;0.70;99.90
52979;DHT22;63430;53.186;6.598;2023-02-15T07:55:17;0.80;99.90
52979;DHT22;63430;53.186;6.598;2023-02-15T07:57:20;0.90;99.90
52979;DHT22;63430;53.186;6.598;2023-02-15T07:59:25;0.90;99.90
52979;DHT22;63430;53.186;6.598;2023-02-15T08:01:30;1.00;99.90
52979;DHT22;63430;53.186;6.598;2023-02-15T08:03:44;1.10;99.90
52979;DHT22;63430;53.186;6.598;2023-02-15T08:05:47;1.20;99.90
52979;DHT22;63430;53.186;6.598;2023-02-15T08:07:49;1.20;99.90
52979;DHT22;63430;53.186;6.598;2023-02-15T08:09:53;1.20;99.90
52979;DHT22;63430;53.186;6.598;2023-02-15T08:11:56;1.30;99.90
52979;DHT22;63430;53.186;6.598;2023-02-15T08:14:01;1.30;99.90
52979;DHT22;63430;53.186;6.598;2023-02-15T08:16:09;1.90;99.90
52979;DHT22;63430;53.186;6.598;2023-02-15T08:18:15;1.50;99.90
52979;DHT22;63430;53.186;6.598;2023-02-15T08:20:17;1.60;99.90
52979;DHT22;63430;53.186;6.598;2023-02-15T08:22:20;1.60;99.90
52979;DHT22;63430;53.186;6.598;2023-02-15T08:24:26;1.70;99.90
52979;DHT22;63430;53.186;6.598;2023-02-15T08:26:31;1.70;99.90
52979;DHT22;63430;53.186;6.598;2023-02-15T08:28:34;1.90;99.90
52979;DHT22;63430;53.186;6.598;2023-02-15T08:30:37;2.00;99.90
52979;DHT22;63430;53.186;6.598;2023-02-15T08:32:42;2.20;99.90
52979;DHT22;63430;53.186;6.598;2023-02-15T08:34:44;2.30;99.90
52979;DHT22;63430;53.186;6.598;2023-02-15T08:36:47;2.40;99.90
52979;DHT22;63430;53.186;6.598;2023-02-15T08:38:49;2.60;99.90
52979;DHT22;63430;53.186;6.598;2023-02-15T08:41:12;2.60;99.90
52979;DHT22;63430;53.186;6.598;2023-02-15T08:43:15;2.80;99.90
52979;DHT22;63430;53.186;6.598;2023-02-15T08:45:18;3.50;99.90
52979;DHT22;63430;53.186;6.598;2023-02-15T08:47:20;2.90;99.90
52979;DHT22;63430;53.186;6.598;2023-02-15T08:49:33;3.00;99.90
52979;DHT22;63430;53.186;6.598;2023-02-15T08:51:37;3.80;99.90
52979;DHT22;63430;53.186;6.598;2023-02-15T08:53:42;3.20;99.90
52979;DHT22;63430;53.186;6.598;2023-02-15T08:55:44;3.20;99.90
52979;DHT22;63430;53.186;6.598;2023-02-15T08:57:47;3.30;99.90
52979;DHT22;63430;53.186;6.598;2023-02-15T08:59:50;3.40;99.90
52979;DHT22;63430;53.186;6.598;2023-02-15T09:01:53;3.50;99.90
52979;DHT22;63430;53.186;6.598;2023-02-15T09:03:57;3.60;99.90
52979;DHT22;63430;53.186;6.598;2023-02-15T09:06:03;3.60;99.90
52979;DHT22;63430;53.186;6.598;2023-02-15T09:08:05;3.70;99.90
52979;DHT22;63430;53.186;6.598;2023-02-15T09:10:15;3.80;99.90
52979;DHT22;63430;53.186;6.598;2023-02-15T09:12:18;3.80;99.90
52979;DHT22;63430;53.186;6.598;2023-02-15T09:14:35;3.90;99.90
52979;DHT22;63430;53.186;6.598;2023-02-15T09:16:38;3.90;99.90
52979;DHT22;63430;53.186;6.598;2023-02-15T09:18:41;4.90;99.90
52979;DHT22;63430;53.186;6.598;2023-02-15T09:20:43;5.10;99.90
52979;DHT22;63430;53.186;6.598;2023-02-15T09:22:51;4.00;99.90
52979;DHT22;63430;53.186;6.598;2023-02-15T09:24:57;4.10;99.90
52979;DHT22;63430;53.186;6.598;2023-02-15T09:27:02;4.10;99.90
52979;DHT22;63430;53.186;6.598;2023-02-15T09:29:04;4.20;99.90
52979;DHT22;63430;53.186;6.598;2023-02-15T09:31:09;4.20;99.90
52979;DHT22;63430;53.186;6.598;2023-02-15T09:33:12;4.30;99.90
52979;DHT22;63430;53.186;6.598;2023-02-15T09:35:15;4.30;99.90
52979;DHT22;63430;53.186;6.598;2023-02-15T09:37:17;4.50;99.90
52979;DHT22;63430;53.186;6.598;2023-02-15T09:39:24;4.50;99.90
52979;DHT22;63430;53.186;6.598;2023-02-15T09:41:49;4.60;99.90
52979;DHT22;63430;53.186;6.598;2023-02-15T09:44:06;4.80;99.90
52979;DHT22;63430;53.186;6.598;2023-02-15T09:46:32;4.80;99.90
52979;DHT22;63430;53.186;6.598;2023-02-15T09:48:39;4.90;99.90
52979;DHT22;63430;53.186;6.598;2023-02-15T09:50:52;5.00;99.90
52979;DHT22;63430;53.186;6.598;2023-02-15T09:53:11;5.00;99.90
52979;DHT22;63430;53.186;6.598;2023-02-15T09:55:38;5.10;99.90
52979;DHT22;63430;53.186;6.598;2023-02-15T09:58:01;5.70;99.90
52979;DHT22;63430;53.186;6.598;2023-02-15T10:00:33;5.40;99.90
52979;DHT22;63430;53.186;6.598;2023-02-15T10:02:50;6.30;99.90
52979;DHT22;63430;53.186;6.598;2023-02-15T10:05:06;5.60;99.90
52979;DHT22;63430;53.186;6.598;2023-02-15T10:07:22;5.70;99.90
52979;DHT22;63430;53.186;6.598;2023-02-15T10:09:38;5.80;99.90
52979;DHT22;63430;53.186;6.598;2023-02-15T10:11:56;5.90;99.90
52979;DHT22;63430;53.186;6.598;2023-02-15T10:14:15;6.00;99.90
52979;DHT22;63430;53.186;6.598;2023-02-15T10:16:28;6.00;99.90
52979;DHT22;63430;53.186;6.598;2023-02-15T10:18:43;6.40;99.90
52979;DHT22;63430;53.186;6.598;2023-02-15T10:21:05;6.20;99.90
52979;DHT22;63430;53.186;6.598;2023-02-15T10:23:26;6.30;99.90
52979;DHT22;63430;53.186;6.598;2023-02-15T10:25:42;6.40;99.90
52979;DHT22;63430;53.186;6.598;2023-02-15T10:27:50;6.50;99.90
52979;DHT22;63430;53.186;6.598;2023-02-15T10:30:02;6.60;99.90
52979;DHT22;63430;53.186;6.598;2023-02-15T10:32:16;6.70;99.90
52979;DHT22;63430;53.186;6.598;2023-02-15T10:34:34;6.80;99.90
52979;DHT22;63430;53.186;6.598;2023-02-15T10:36:58;6.80;99.90
52979;DHT22;63430;53.186;6.598;2023-02-15T10:39:09;6.90;99.90
52979;DHT22;63430;53.186;6.598;2023-02-15T10:41:28;7.00;99.90
52979;DHT22;63430;53.186;6.598;2023-02-15T10:44:13;6.90;99.90
52979;DHT22;63430;53.186;6.598;2023-02-15T10:46:33;7.00;99.90
52979;DHT22;63430;53.186;6.598;2023-02-15T10:49:00;7.00;99.90
52979;DHT22;63430;53.186;6.598;2023-02-15T10:51:12;7.10;99.90
52979;DHT22;63430;53.186;6.598;2023-02-15T10:53:33;7.30;99.90
52979;DHT22;63430;53.186;6.598;2023-02-15T10:55:48;7.30;99.90
52979;DHT22;63430;53.186;6.598;2023-02-15T10:57:58;7.50;99.90
52979;DHT22;63430;53.186;6.598;2023-02-15T11:00:09;7.60;99.90
52979;DHT22;63430;53.186;6.598;2023-02-15T11:02:23;7.70;99.90
52979;DHT22;63430;53.186;6.598;2023-02-15T11:04:45;7.80;99.90
52979;DHT22;63430;53.186;6.598;2023-02-15T11:07:02;7.90;99.90
52979;DHT22;63430;53.186;6.598;2023-02-15T11:09:10;8.00;99.90
52979;DHT22;63430;53.186;6.598;2023-02-15T11:11:20;8.10;99.90
52979;DHT22;63430;53.186;6.598;2023-02-15T11:13:26;8.20;99.90
52979;DHT22;63430;53.186;6.598;2023-02-15T11:15:36;8.20;99.90
52979;DHT22;63430;53.186;6.598;2023-02-15T11:17:43;8.30;99.90
52979;DHT22;63430;53.186;6.598;2023-02-15T11:19:55;8.40;99.90
52979;DHT22;63430;53.186;6.598;2023-02-15T11:22:01;9.40;99.90
52979;DHT22;63430;53.186;6.598;2023-02-15T11:24:10;8.50;99.90
52979;DHT22;63430;53.186;6.598;2023-02-15T11:26:16;8.60;99.90
52979;DHT22;63430;53.186;6.598;2023-02-15T11:28:24;8.70;99.90
52979;DHT22;63430;53.186;6.598;2023-02-15T11:30:38;8.80;99.90
52979;DHT22;63430;53.186;6.598;2023-02-15T11:32:44;8.80;99.90
52979;DHT22;63430;53.186;6.598;2023-02-15T11:34:51;8.90;99.90
52979;DHT22;63430;53.186;6.598;2023-02-15T11:36:59;8.90;99.90
52979;DHT22;63430;53.186;6.598;2023-02-15T11:39:10;8.90;99.90
52979;DHT22;63430;53.186;6.598;2023-02-15T11:41:16;9.00;99.90
52979;DHT22;63430;53.186;6.598;2023-02-15T11:43:26;9.10;99.90
52979;DHT22;63430;53.186;6.598;2023-02-15T11:45:34;9.10;99.90
52979;DHT22;63430;53.186;6.598;2023-02-15T11:47:37;9.10;99.90
52979;DHT22;63430;53.186;6.598;2023-02-15T11:49:47;9.20;99.90
52979;DHT22;63430;53.186;6.598;2023-02-15T11:51:50;9.40;99.90
52979;DHT22;63430;53.186;6.598;2023-02-15T11:53:54;9.30;99.90
52979;DHT22;63430;53.186;6.598;2023-02-15T11:55:58;9.40;99.90
52979;DHT22;63430;53.186;6.598;2023-02-15T11:58:20;9.50;99.90
52979;DHT22;63430;53.186;6.598;2023-02-15T12:00:35;9.60;99.90
52979;DHT22;63430;53.186;6.598;2023-02-15T12:02:46;9.60;99.90
52979;DHT22;63430;53.186;6.598;2023-02-15T12:04:53;9.70;99.90
52979;DHT22;63430;53.186;6.598;2023-02-15T12:06:59;9.80;99.90
52979;DHT22;63430;53.186;6.598;2023-02-15T12:09:09;10.20;99.90
52979;DHT22;63430;53.186;6.598;2023-02-15T12:11:19;10.10;99.90
52979;DHT22;63430;53.186;6.598;2023-02-15T12:13:23;10.10;99.90
52979;DHT22;63430;53.186;6.598;2023-02-15T12:15:30;10.20;99.90
52979;DHT22;63430;53.186;6.598;2023-02-15T12:17:49;10.40;99.90
52979;DHT22;63430;53.186;6.598;2023-02-15T12:19:56;10.70;99.90
52979;DHT22;63430;53.186;6.598;2023-02-15T12:22:01;10.50;99.90
52979;DHT22;63430;53.186;6.598;2023-02-15T12:24:18;10.60;99.90
52979;DHT22;63430;53.186;6.598;2023-02-15T12:26:26;10.60;99.90
52979;DHT22;63430;53.186;6.598;2023-02-15T12:28:33;10.80;99.90
52979;DHT22;63430;53.186;6.598;2023-02-15T12:30:36;10.80;99.90
52979;DHT22;63430;53.186;6.598;2023-02-15T12:32:51;10.80;99.90
52979;DHT22;63430;53.186;6.598;2023-02-15T12:35:00;10.80;99.90
52979;DHT22;63430;53.186;6.598;2023-02-15T12:37:09;10.70;99.90
52979;DHT22;63430;53.186;6.598;2023-02-15T12:39:21;10.70;99.90
52979;DHT22;63430;53.186;6.598;2023-02-15T12:41:25;10.70;99.90
52979;DHT22;63430;53.186;6.598;2023-02-15T12:43:31;10.70;99.90
52979;DHT22;63430;53.186;6.598;2023-02-15T12:45:35;10.80;99.90
52979;DHT22;63430;53.186;6.598;2023-02-15T12:47:38;11.20;99.90
52979;DHT22;63430;53.186;6.598;2023-02-15T12:49:45;10.90;99.90
52979;DHT22;63430;53.186;6.598;2023-02-15T12:52:24;11.00;99.90
52979;DHT22;63430;53.186;6.598;2023-02-15T12:54:38;11.10;99.90
52979;DHT22;63430;53.186;6.598;2023-02-15T12:56:40;11.20;99.90
52979;DHT22;63430;53.186;6.598;2023-02-15T12:58:43;11.40;99.90
52979;DHT22;63430;53.186;6.598;2023-02-15T13:00:48;11.40;99.90
52979;DHT22;63430;53.186;6.598;2023-02-15T13:03:04;11.20;99.90
52979;DHT22;63430;53.186;6.598;2023-02-15T13:05:18;11.30;99.90
52979;DHT22;63430;53.186;6.598;2023-02-15T13:07:24;11.30;99.90
52979;DHT22;63430;53.186;6.598;2023-02-15T13:09:37;11.20;99.90
52979;DHT22;63430;53.186;6.598;2023-02-15T13:11:42;11.20;99.90
52979;DHT22;63430;53.186;6.598;2023-02-15T13:13:51;11.20;99.90
52979;DHT22;63430;53.186;6.598;2023-02-15T13:15:58;11.20;99.90
52979;DHT22;63430;53.186;6.598;2023-02-15T13:18:30;11.20;99.90
52979;DHT22;63430;53.186;6.598;2023-02-15T13:20:37;11.20;99.90
52979;DHT22;63430;53.186;6.598;2023-02-15T13:22:45;11.20;99.90
52979;DHT22;63430;53.186;6.598;2023-02-15T13:24:53;11.30;99.90
52979;DHT22;63430;53.186;6.598;2023-02-15T13:27:18;11.20;99.90
52979;DHT22;63430;53.186;6.598;2023-02-15T13:29:28;11.30;99.90
52979;DHT22;63430;53.186;6.598;2023-02-15T13:31:38;10.90;99.90
52979;DHT22;63430;53.186;6.598;2023-02-15T13:34:07;11.30;99.90
52979;DHT22;63430;53.186;6.598;2023-02-15T13:36:40;11.30;99.90
52979;DHT22;63430;53.186;6.598;2023-02-15T13:39:01;11.30;99.90
52979;DHT22;63430;53.186;6.598;2023-02-15T13:41:10;11.30;99.90
52979;DHT22;63430;53.186;6.598;2023-02-15T13:43:30;11.30;99.90